sensor_id;sensor_type;location;lat;lon;timestamp;temperature;humidity
957;DHT22;465;48.802;9.224;2022-10-31T00:00:47;13.50;99.90
957;DHT22;465;48.802;9.224;2022-10-31T00:03:14;13.50;99.90
957;DHT22;465;48.802;9.224;2022-10-31T00:05:41;13.40;99.90
957;DHT22;465;48.802;9.224;2022-10-31T00:08:08;13.50;99.90
957;DHT22;465;48.802;9.224;2022-10-31T00:10:37;13.50;99.90
957;DHT22;465;48.802;9.224;2022-10-31T00:13:04;13.40;99.90
957;DHT22;465;48.802;9.224;2022-10-31T00:15:34;13.50;99.90
957;DHT22;465;48.802;9.224;2022-10-31T00:18:01;13.40;99.90
957;DHT22;465;48.802;9.224;2022-10-31T00:20:28;13.40;99.90
957;DHT22;465;48.802;9.224;2022-10-31T00:22:57;13.30;99.90
957;DHT22;465;48.802;9.224;2022-10-31T00:25:25;13.30;99.90
957;DHT22;465;48.802;9.224;2022-10-31T00:27:52;13.20;99.90
957;DHT22;465;48.802;9.224;2022-10-31T00:30:18;13.20;99.90
957;DHT22;465;48.802;9.224;2022-10-31T00:32:47;13.20;99.90
957;DHT22;465;48.802;9.224;2022-10-31T00:35:13;13.20;99.90
957;DHT22;465;48.802;9.224;2022-10-31T00:37:40;13.20;99.90
957;DHT22;465;48.802;9.224;2022-10-31T00:40:09;13.20;99.90
957;DHT22;465;48.802;9.224;2022-10-31T00:42:36;13.20;99.90
957;DHT22;465;48.802;9.224;2022-10-31T00:45:03;13.20;99.90
957;DHT22;465;48.802;9.224;2022-10-31T00:47:29;13.20;99.90
957;DHT22;465;48.802;9.224;2022-10-31T00:49:58;13.10;99.90
957;DHT22;465;48.802;9.224;2022-10-31T00:52:24;13.00;99.90
957;DHT22;465;48.802;9.224;2022-10-31T00:54:51;13.00;99.90
957;DHT22;465;48.802;9.224;2022-10-31T00:57:18;13.00;99.90
957;DHT22;465;48.802;9.224;2022-10-31T00:59:45;12.90;99.90
957;DHT22;465;48.802;9.224;2022-10-31T01:02:12;12.90;99.90
957;DHT22;465;48.802;9.224;2022-10-31T01:04:38;12.90;99.90
957;DHT22;465;48.802;9.224;2022-10-31T01:07:07;12.90;99.90
957;DHT22;465;48.802;9.224;2022-10-31T01:09:34;13.00;99.90
957;DHT22;465;48.802;9.224;2022-10-31T01:12:01;13.00;99.90
957;DHT22;465;48.802;9.224;2022-10-31T01:14:27;13.00;99.90
957;DHT22;465;48.802;9.224;2022-10-31T01:16:54;13.00;99.90
957;DHT22;465;48.802;9.224;2022-10-31T01:19:21;13.00;99.90
957;DHT22;465;48.802;9.224;2022-10-31T01:21:48;13.00;99.90
957;DHT22;465;48.802;9.224;2022-10-31T01:24:16;13.00;99.90
957;DHT22;465;48.802;9.224;2022-10-31T01:26:43;12.90;99.90
957;DHT22;465;48.802;9.224;2022-10-31T01:29:10;12.90;99.90
957;DHT22;465;48.802;9.224;2022-10-31T01:31:38;12.90;99.90
957;DHT22;465;48.802;9.224;2022-10-31T01:34:06;12.90;99.90
957;DHT22;465;48.802;9.224;2022-10-31T01:36:34;12.90;99.90
957;DHT22;465;48.802;9.224;2022-10-31T01:39:03;12.80;99.90
957;DHT22;465;48.802;9.224;2022-10-31T01:41:34;12.80;99.90
957;DHT22;465;48.802;9.224;2022-10-31T01:44:44;12.80;99.90
957;DHT22;465;48.802;9.224;2022-10-31T01:46:55;12.80;99.90
957;DHT22;465;48.802;9.224;2022-10-31T01:49:26;12.80;99.90
957;DHT22;465;48.802;9.224;2022-10-31T01:51:59;12.70;99.90
957;DHT22;465;48.802;9.224;2022-10-31T01:54:35;12.70;99.90
957;DHT22;465;48.802;9.224;2022-10-31T01:57:02;12.80;99.90
957;DHT22;465;48.802;9.224;2022-10-31T01:59:35;12.80;99.90
957;DHT22;465;48.802;9.224;2022-10-31T02:02:07;12.80;99.90
957;DHT22;465;48.802;9.224;2022-10-31T02:04:34;12.80;99.90
957;DHT22;465;48.802;9.224;2022-10-31T02:07:05;12.70;99.90
957;DHT22;465;48.802;9.224;2022-10-31T02:09:33;12.70;99.90
957;DHT22;465;48.802;9.224;2022-10-31T02:12:01;12.70;99.90
957;DHT22;465;48.802;9.224;2022-10-31T02:14:29;12.70;99.90
957;DHT22;465;48.802;9.224;2022-10-31T02:16:57;12.70;99.90
957;DHT22;465;48.802;9.224;2022-10-31T02:19:30;12.70;99.90
957;DHT22;465;48.802;9.224;2022-10-31T02:22:04;12.70;99.90
957;DHT22;465;48.802;9.224;2022-10-31T02:24:45;12.70;99.90
957;DHT22;465;48.802;9.224;2022-10-31T02:27:24;12.70;99.90
957;DHT22;465;48.802;9.224;2022-10-31T02:30:07;12.70;99.90
957;DHT22;465;48.802;9.224;2022-10-31T02:32:48;12.70;99.90
957;DHT22;465;48.802;9.224;2022-10-31T02:35:27;12.60;99.90
957;DHT22;465;48.802;9.224;2022-10-31T02:38:02;12.60;99.90
957;DHT22;465;48.802;9.224;2022-10-31T02:40:34;12.60;99.90
957;DHT22;465;48.802;9.224;2022-10-31T02:43:08;12.60;99.90
957;DHT22;465;48.802;9.224;2022-10-31T02:45:45;12.50;99.90
957;DHT22;465;48.802;9.224;2022-10-31T02:48:19;12.50;99.90
957;DHT22;465;48.802;9.224;2022-10-31T02:50:53;12.50;99.90
957;DHT22;465;48.802;9.224;2022-10-31T02:53:21;12.50;99.90
957;DHT22;465;48.802;9.224;2022-10-31T02:55:57;12.50;99.90
957;DHT22;465;48.802;9.224;2022-10-31T02:58:28;12.50;99.90
957;DHT22;465;48.802;9.224;2022-10-31T03:01:20;12.50;99.90
957;DHT22;465;48.802;9.224;2022-10-31T03:04:01;12.40;99.90
957;DHT22;465;48.802;9.224;2022-10-31T03:06:33;12.40;99.90
957;DHT22;465;48.802;9.224;2022-10-31T03:09:07;12.40;99.90
957;DHT22;465;48.802;9.224;2022-10-31T03:11:43;12.40;99.90
957;DHT22;465;48.802;9.224;2022-10-31T03:14:14;12.40;99.90
957;DHT22;465;48.802;9.224;2022-10-31T03:16:46;12.40;99.90
957;DHT22;465;48.802;9.224;2022-10-31T03:19:18;12.30;99.90
957;DHT22;465;48.802;9.224;2022-10-31T03:21:48;12.30;99.90
957;DHT22;465;48.802;9.224;2022-10-31T03:24:18;12.30;99.90
957;DHT22;465;48.802;9.224;2022-10-31T03:26:48;12.30;99.90
957;DHT22;465;48.802;9.224;2022-10-31T03:29:18;12.20;99.90
957;DHT22;465;48.802;9.224;2022-10-31T03:31:50;12.20;99.90
957;DHT22;465;48.802;9.224;2022-10-31T03:34:19;12.20;99.90
957;DHT22;465;48.802;9.224;2022-10-31T03:36:51;12.10;99.90
957;DHT22;465;48.802;9.224;2022-10-31T03:39:21;12.10;99.90
957;DHT22;465;48.802;9.224;2022-10-31T03:41:53;12.10;99.90
957;DHT22;465;48.802;9.224;2022-10-31T03:44:21;12.10;99.90
957;DHT22;465;48.802;9.224;2022-10-31T03:46:50;12.20;99.90
957;DHT22;465;48.802;9.224;2022-10-31T03:49:18;12.20;99.90
957;DHT22;465;48.802;9.224;2022-10-31T03:51:49;12.10;99.90
957;DHT22;465;48.802;9.224;2022-10-31T03:54:22;12.20;99.90
957;DHT22;465;48.802;9.224;2022-10-31T03:56:54;12.10;99.90
957;DHT22;465;48.802;9.224;2022-10-31T03:59:25;12.10;99.90
957;DHT22;465;48.802;9.224;2022-10-31T04:01:56;12.10;99.90
957;DHT22;465;48.802;9.224;2022-10-31T04:04:26;12.10;99.90
957;DHT22;465;48.802;9.224;2022-10-31T04:06:55;12.10;99.90
957;DHT22;465;48.802;9.224;2022-10-31T04:09:24;12.00;99.90
957;DHT22;465;48.802;9.224;2022-10-31T04:11:55;12.00;99.90
957;DHT22;465;48.802;9.224;2022-10-31T04:14:25;12.00;99.90
957;DHT22;465;48.802;9.224;2022-10-31T04:16:53;12.00;99.90
957;DHT22;465;48.802;9.224;2022-10-31T04:19:21;12.00;99.90
957;DHT22;465;48.802;9.224;2022-10-31T04:21:49;12.00;99.90
957;DHT22;465;48.802;9.224;2022-10-31T04:24:17;12.00;99.90
957;DHT22;465;48.802;9.224;2022-10-31T04:26:43;12.00;99.90
957;DHT22;465;48.802;9.224;2022-10-31T04:29:10;11.90;99.90
957;DHT22;465;48.802;9.224;2022-10-31T04:31:37;11.90;99.90
957;DHT22;465;48.802;9.224;2022-10-31T04:34:04;11.90;99.90
957;DHT22;465;48.802;9.224;2022-10-31T04:36:30;11.80;99.90
957;DHT22;465;48.802;9.224;2022-10-31T04:38:59;11.80;99.90
957;DHT22;465;48.802;9.224;2022-10-31T04:41:27;11.70;99.90
957;DHT22;465;48.802;9.224;2022-10-31T04:43:54;11.70;99.90
957;DHT22;465;48.802;9.224;2022-10-31T04:46:21;11.70;99.90
957;DHT22;465;48.802;9.224;2022-10-31T04:48:48;11.70;99.90
957;DHT22;465;48.802;9.224;2022-10-31T04:51:15;11.70;99.90
957;DHT22;465;48.802;9.224;2022-10-31T04:53:42;11.60;99.90
957;DHT22;465;48.802;9.224;2022-10-31T04:56:10;11.60;99.90
957;DHT22;465;48.802;9.224;2022-10-31T04:58:37;11.60;99.90
957;DHT22;465;48.802;9.224;2022-10-31T05:01:04;11.60;99.90
957;DHT22;465;48.802;9.224;2022-10-31T05:03:30;11.60;99.90
957;DHT22;465;48.802;9.224;2022-10-31T05:05:57;11.60;99.90
957;DHT22;465;48.802;9.224;2022-10-31T05:08:24;11.50;99.90
957;DHT22;465;48.802;9.224;2022-10-31T05:10:51;11.50;99.90
957;DHT22;465;48.802;9.224;2022-10-31T05:13:19;11.50;99.90
957;DHT22;465;48.802;9.224;2022-10-31T05:15:46;11.50;99.90
957;DHT22;465;48.802;9.224;2022-10-31T05:18:13;11.50;99.90
957;DHT22;465;48.802;9.224;2022-10-31T05:20:40;11.50;99.90
957;DHT22;465;48.802;9.224;2022-10-31T05:23:06;11.40;99.90
957;DHT22;465;48.802;9.224;2022-10-31T05:25:33;11.40;99.90
957;DHT22;465;48.802;9.224;2022-10-31T05:28:00;11.40;99.90
957;DHT22;465;48.802;9.224;2022-10-31T05:30:30;11.40;99.90
957;DHT22;465;48.802;9.224;2022-10-31T05:32:57;11.40;99.90
957;DHT22;465;48.802;9.224;2022-10-31T05:35:25;11.40;99.90
957;DHT22;465;48.802;9.224;2022-10-31T05:37:53;11.40;99.90
957;DHT22;465;48.802;9.224;2022-10-31T05:40:20;11.40;99.90
957;DHT22;465;48.802;9.224;2022-10-31T05:42:50;11.40;99.90
957;DHT22;465;48.802;9.224;2022-10-31T05:45:18;11.40;99.90
957;DHT22;465;48.802;9.224;2022-10-31T05:47:51;11.40;99.90
957;DHT22;465;48.802;9.224;2022-10-31T05:50:18;11.40;99.90
957;DHT22;465;48.802;9.224;2022-10-31T05:52:45;11.40;99.90
957;DHT22;465;48.802;9.224;2022-10-31T05:55:12;11.40;99.90
957;DHT22;465;48.802;9.224;2022-10-31T05:57:40;11.40;99.90
957;DHT22;465;48.802;9.224;2022-10-31T06:00:09;11.30;99.90
957;DHT22;465;48.802;9.224;2022-10-31T06:02:36;11.30;99.90
957;DHT22;465;48.802;9.224;2022-10-31T06:05:05;11.30;99.90
957;DHT22;465;48.802;9.224;2022-10-31T06:07:32;11.40;99.90
957;DHT22;465;48.802;9.224;2022-10-31T06:10:01;11.40;99.90
957;DHT22;465;48.802;9.224;2022-10-31T06:12:29;11.40;99.90
957;DHT22;465;48.802;9.224;2022-10-31T06:14:56;11.40;99.90
957;DHT22;465;48.802;9.224;2022-10-31T06:17:23;11.40;99.90
957;DHT22;465;48.802;9.224;2022-10-31T06:19:50;11.40;99.90
957;DHT22;465;48.802;9.224;2022-10-31T06:22:18;11.50;99.90
957;DHT22;465;48.802;9.224;2022-10-31T06:24:45;11.50;99.90
957;DHT22;465;48.802;9.224;2022-10-31T06:27:12;11.50;99.90
957;DHT22;465;48.802;9.224;2022-10-31T06:29:39;11.50;99.90
957;DHT22;465;48.802;9.224;2022-10-31T06:32:08;11.40;99.90
957;DHT22;465;48.802;9.224;2022-10-31T06:34:36;11.40;99.90
957;DHT22;465;48.802;9.224;2022-10-31T06:37:03;11.40;99.90
957;DHT22;465;48.802;9.224;2022-10-31T06:39:31;11.40;99.90
957;DHT22;465;48.802;9.224;2022-10-31T06:41:58;11.40;99.90
957;DHT22;465;48.802;9.224;2022-10-31T06:44:25;11.40;99.90
957;DHT22;465;48.802;9.224;2022-10-31T06:46:52;11.40;99.90
957;DHT22;465;48.802;9.224;2022-10-31T06:49:19;11.40;99.90
957;DHT22;465;48.802;9.224;2022-10-31T06:51:51;11.40;99.90
957;DHT22;465;48.802;9.224;2022-10-31T06:54:18;11.50;99.90
957;DHT22;465;48.802;9.224;2022-10-31T06:56:48;11.50;99.90
957;DHT22;465;48.802;9.224;2022-10-31T06:59:16;11.50;99.90
957;DHT22;465;48.802;9.224;2022-10-31T07:01:43;11.60;99.90
957;DHT22;465;48.802;9.224;2022-10-31T07:04:15;11.60;99.90
957;DHT22;465;48.802;9.224;2022-10-31T07:06:46;11.60;99.90
957;DHT22;465;48.802;9.224;2022-10-31T07:09:12;11.60;99.90
957;DHT22;465;48.802;9.224;2022-10-31T07:11:40;11.70;99.90
957;DHT22;465;48.802;9.224;2022-10-31T07:14:12;11.60;99.90
957;DHT22;465;48.802;9.224;2022-10-31T07:16:39;11.70;99.90
957;DHT22;465;48.802;9.224;2022-10-31T07:19:10;11.80;99.90
957;DHT22;465;48.802;9.224;2022-10-31T07:21:37;11.80;99.90
957;DHT22;465;48.802;9.224;2022-10-31T07:24:05;11.80;99.90
957;DHT22;465;48.802;9.224;2022-10-31T07:26:32;11.90;99.90
957;DHT22;465;48.802;9.224;2022-10-31T07:28:59;12.00;99.90
957;DHT22;465;48.802;9.224;2022-10-31T07:31:42;12.00;99.90
957;DHT22;465;48.802;9.224;2022-10-31T07:34:12;12.10;99.90
957;DHT22;465;48.802;9.224;2022-10-31T07:36:42;12.10;99.90
957;DHT22;465;48.802;9.224;2022-10-31T07:39:10;12.20;99.90
957;DHT22;465;48.802;9.224;2022-10-31T07:41:42;12.20;99.90
957;DHT22;465;48.802;9.224;2022-10-31T07:46:48;12.30;99.90
957;DHT22;465;48.802;9.224;2022-10-31T07:54:55;12.50;99.90
957;DHT22;465;48.802;9.224;2022-10-31T08:20:57;14.20;99.90
957;DHT22;465;48.802;9.224;2022-10-31T08:26:12;14.50;99.90
957;DHT22;465;48.802;9.224;2022-10-31T08:28:44;14.60;99.90
957;DHT22;465;48.802;9.224;2022-10-31T08:31:20;14.80;99.90
957;DHT22;465;48.802;9.224;2022-10-31T08:33:53;14.80;99.90
957;DHT22;465;48.802;9.224;2022-10-31T08:42:34;14.90;99.90
957;DHT22;465;48.802;9.224;2022-10-31T08:45:17;14.90;99.90
957;DHT22;465;48.802;9.224;2022-10-31T08:47:45;15.10;99.90
957;DHT22;465;48.802;9.224;2022-10-31T08:50:19;15.30;99.90
957;DHT22;465;48.802;9.224;2022-10-31T08:52:48;15.40;99.90
957;DHT22;465;48.802;9.224;2022-10-31T08:55:22;15.50;99.90
957;DHT22;465;48.802;9.224;2022-10-31T08:57:54;15.60;99.90
957;DHT22;465;48.802;9.224;2022-10-31T09:00:23;15.60;99.90
957;DHT22;465;48.802;9.224;2022-10-31T09:02:55;15.60;99.90
957;DHT22;465;48.802;9.224;2022-10-31T09:05:33;15.50;99.90
957;DHT22;465;48.802;9.224;2022-10-31T09:08:13;15.50;99.90
957;DHT22;465;48.802;9.224;2022-10-31T09:10:40;15.60;99.90
957;DHT22;465;48.802;9.224;2022-10-31T09:13:12;15.80;99.90
957;DHT22;465;48.802;9.224;2022-10-31T09:15:41;16.00;99.90
957;DHT22;465;48.802;9.224;2022-10-31T09:18:10;16.20;99.90
957;DHT22;465;48.802;9.224;2022-10-31T09:20:40;16.40;99.90
957;DHT22;465;48.802;9.224;2022-10-31T09:23:12;16.50;99.90
957;DHT22;465;48.802;9.224;2022-10-31T09:25:41;16.70;99.90
957;DHT22;465;48.802;9.224;2022-10-31T09:28:11;16.70;99.90
957;DHT22;465;48.802;9.224;2022-10-31T09:30:39;16.80;99.90
957;DHT22;465;48.802;9.224;2022-10-31T09:35:43;16.70;99.90
957;DHT22;465;48.802;9.224;2022-10-31T09:38:13;16.70;99.90
957;DHT22;465;48.802;9.224;2022-10-31T09:40:41;16.70;99.90
957;DHT22;465;48.802;9.224;2022-10-31T09:43:15;16.80;99.90
957;DHT22;465;48.802;9.224;2022-10-31T09:46:00;16.90;99.90
957;DHT22;465;48.802;9.224;2022-10-31T09:48:46;16.90;99.90
957;DHT22;465;48.802;9.224;2022-10-31T09:51:17;16.80;99.90
957;DHT22;465;48.802;9.224;2022-10-31T09:53:50;16.60;99.90
957;DHT22;465;48.802;9.224;2022-10-31T09:56:21;16.70;99.90
957;DHT22;465;48.802;9.224;2022-10-31T09:58:53;16.50;99.90
957;DHT22;465;48.802;9.224;2022-10-31T10:01:30;16.80;99.90
957;DHT22;465;48.802;9.224;2022-10-31T10:04:01;17.00;99.90
957;DHT22;465;48.802;9.224;2022-10-31T10:09:01;17.20;99.90
957;DHT22;465;48.802;9.224;2022-10-31T10:11:37;17.70;99.90
957;DHT22;465;48.802;9.224;2022-10-31T10:14:19;17.90;99.90
957;DHT22;465;48.802;9.224;2022-10-31T10:17:02;18.30;99.90
957;DHT22;465;48.802;9.224;2022-10-31T10:19:42;18.80;99.90
957;DHT22;465;48.802;9.224;2022-10-31T10:22:15;19.10;99.90
957;DHT22;465;48.802;9.224;2022-10-31T10:24:57;19.40;99.90
957;DHT22;465;48.802;9.224;2022-10-31T10:27:36;19.70;99.90
957;DHT22;465;48.802;9.224;2022-10-31T10:30:15;19.60;99.90
957;DHT22;465;48.802;9.224;2022-10-31T10:32:49;19.60;99.90
957;DHT22;465;48.802;9.224;2022-10-31T10:35:22;19.70;99.90
957;DHT22;465;48.802;9.224;2022-10-31T10:37:52;19.50;99.90
957;DHT22;465;48.802;9.224;2022-10-31T10:40:24;19.30;99.90
957;DHT22;465;48.802;9.224;2022-10-31T10:42:59;19.20;99.90
957;DHT22;465;48.802;9.224;2022-10-31T10:46:16;19.20;99.90
957;DHT22;465;48.802;9.224;2022-10-31T10:49:10;19.10;99.90
957;DHT22;465;48.802;9.224;2022-10-31T10:51:42;19.20;99.90
957;DHT22;465;48.802;9.224;2022-10-31T10:57:12;19.10;99.90
957;DHT22;465;48.802;9.224;2022-10-31T10:59:43;18.90;99.90
957;DHT22;465;48.802;9.224;2022-10-31T11:02:16;18.80;99.90
957;DHT22;465;48.802;9.224;2022-10-31T11:04:45;18.50;99.90
957;DHT22;465;48.802;9.224;2022-10-31T11:07:14;18.50;99.90
957;DHT22;465;48.802;9.224;2022-10-31T11:09:41;18.40;99.90
957;DHT22;465;48.802;9.224;2022-10-31T11:12:11;18.40;99.90
957;DHT22;465;48.802;9.224;2022-10-31T11:14:47;18.40;99.90
957;DHT22;465;48.802;9.224;2022-10-31T11:17:22;18.50;99.90
957;DHT22;465;48.802;9.224;2022-10-31T11:20:00;18.50;99.90
957;DHT22;465;48.802;9.224;2022-10-31T11:22:27;18.50;99.90
957;DHT22;465;48.802;9.224;2022-10-31T11:24:54;18.60;99.90
957;DHT22;465;48.802;9.224;2022-10-31T11:27:24;18.90;99.90
957;DHT22;465;48.802;9.224;2022-10-31T11:29:51;20.00;99.90
957;DHT22;465;48.802;9.224;2022-10-31T11:32:20;20.60;99.90
957;DHT22;465;48.802;9.224;2022-10-31T11:34:50;20.90;99.50
957;DHT22;465;48.802;9.224;2022-10-31T11:37:21;21.30;98.80
957;DHT22;465;48.802;9.224;2022-10-31T11:39:50;21.40;99.10
957;DHT22;465;48.802;9.224;2022-10-31T11:42:23;21.40;98.50
957;DHT22;465;48.802;9.224;2022-10-31T11:44:51;21.10;98.70
957;DHT22;465;48.802;9.224;2022-10-31T11:47:26;21.20;99.40
957;DHT22;465;48.802;9.224;2022-10-31T11:49:54;21.60;98.00
957;DHT22;465;48.802;9.224;2022-10-31T11:52:24;21.90;97.70
957;DHT22;465;48.802;9.224;2022-10-31T11:54:54;22.20;97.10
957;DHT22;465;48.802;9.224;2022-10-31T11:57:24;22.30;96.40
957;DHT22;465;48.802;9.224;2022-10-31T11:59:53;22.20;96.20
957;DHT22;465;48.802;9.224;2022-10-31T12:02:20;22.00;96.00
957;DHT22;465;48.802;9.224;2022-10-31T12:04:51;21.90;96.50
957;DHT22;465;48.802;9.224;2022-10-31T12:07:18;21.80;96.70
957;DHT22;465;48.802;9.224;2022-10-31T12:09:45;21.50;97.20
957;DHT22;465;48.802;9.224;2022-10-31T12:12:27;21.40;97.50
957;DHT22;465;48.802;9.224;2022-10-31T12:15:13;21.20;97.90
957;DHT22;465;48.802;9.224;2022-10-31T12:17:45;21.00;98.00
957;DHT22;465;48.802;9.224;2022-10-31T12:20:21;21.20;97.90
957;DHT22;465;48.802;9.224;2022-10-31T12:22:54;21.70;97.80
957;DHT22;465;48.802;9.224;2022-10-31T12:25:33;22.10;96.40
957;DHT22;465;48.802;9.224;2022-10-31T12:28:35;22.30;95.30
957;DHT22;465;48.802;9.224;2022-10-31T12:31:12;22.40;95.00
957;DHT22;465;48.802;9.224;2022-10-31T12:33:50;22.10;95.00
957;DHT22;465;48.802;9.224;2022-10-31T12:36:28;22.10;95.30
957;DHT22;465;48.802;9.224;2022-10-31T12:39:22;21.90;95.80
957;DHT22;465;48.802;9.224;2022-10-31T12:41:52;21.60;96.20
957;DHT22;465;48.802;9.224;2022-10-31T12:44:52;21.50;96.40
957;DHT22;465;48.802;9.224;2022-10-31T12:47:34;20.90;97.10
957;DHT22;465;48.802;9.224;2022-10-31T12:50:20;20.50;97.60
957;DHT22;465;48.802;9.224;2022-10-31T12:52:58;20.30;98.20
957;DHT22;465;48.802;9.224;2022-10-31T12:55:40;20.10;98.60
957;DHT22;465;48.802;9.224;2022-10-31T12:58:12;20.00;99.00
957;DHT22;465;48.802;9.224;2022-10-31T13:00:44;20.00;99.20
957;DHT22;465;48.802;9.224;2022-10-31T13:03:21;19.90;98.90
957;DHT22;465;48.802;9.224;2022-10-31T13:05:53;20.00;99.00
957;DHT22;465;48.802;9.224;2022-10-31T13:08:24;20.00;99.10
957;DHT22;465;48.802;9.224;2022-10-31T13:11:01;20.00;99.40
957;DHT22;465;48.802;9.224;2022-10-31T13:13:33;20.00;99.30
957;DHT22;465;48.802;9.224;2022-10-31T13:16:07;19.90;99.30
957;DHT22;465;48.802;9.224;2022-10-31T13:18:40;19.90;99.50
957;DHT22;465;48.802;9.224;2022-10-31T13:21:12;19.80;99.50
957;DHT22;465;48.802;9.224;2022-10-31T13:23:41;19.90;99.70
957;DHT22;465;48.802;9.224;2022-10-31T13:26:13;19.90;99.60
957;DHT22;465;48.802;9.224;2022-10-31T13:28:47;20.00;99.80
957;DHT22;465;48.802;9.224;2022-10-31T13:31:18;20.00;99.40
957;DHT22;465;48.802;9.224;2022-10-31T13:33:51;20.00;99.70
957;DHT22;465;48.802;9.224;2022-10-31T13:36:25;20.00;99.90
957;DHT22;465;48.802;9.224;2022-10-31T13:38:54;19.90;99.90
957;DHT22;465;48.802;9.224;2022-10-31T13:41:32;19.90;99.90
957;DHT22;465;48.802;9.224;2022-10-31T13:44:11;20.00;99.90
957;DHT22;465;48.802;9.224;2022-10-31T13:46:44;20.20;99.90
957;DHT22;465;48.802;9.224;2022-10-31T13:49:25;20.40;99.90
957;DHT22;465;48.802;9.224;2022-10-31T13:51:52;21.10;99.30
957;DHT22;465;48.802;9.224;2022-10-31T13:54:23;21.30;98.40
957;DHT22;465;48.802;9.224;2022-10-31T13:56:57;21.40;98.60
957;DHT22;465;48.802;9.224;2022-10-31T13:59:26;21.50;98.30
957;DHT22;465;48.802;9.224;2022-10-31T14:01:56;21.20;98.30
957;DHT22;465;48.802;9.224;2022-10-31T14:04:28;21.10;98.30
957;DHT22;465;48.802;9.224;2022-10-31T14:07:04;21.20;98.30
957;DHT22;465;48.802;9.224;2022-10-31T14:09:34;21.30;98.30
957;DHT22;465;48.802;9.224;2022-10-31T14:12:06;21.00;98.20
957;DHT22;465;48.802;9.224;2022-10-31T14:14:41;20.90;98.60
957;DHT22;465;48.802;9.224;2022-10-31T14:17:19;20.70;98.80
957;DHT22;465;48.802;9.224;2022-10-31T14:20:01;20.50;99.10
957;DHT22;465;48.802;9.224;2022-10-31T14:22:32;20.50;99.40
957;DHT22;465;48.802;9.224;2022-10-31T14:24:59;20.60;99.60
957;DHT22;465;48.802;9.224;2022-10-31T14:27:35;20.60;99.30
957;DHT22;465;48.802;9.224;2022-10-31T14:30:18;20.60;99.40
957;DHT22;465;48.802;9.224;2022-10-31T14:32:50;20.50;99.80
957;DHT22;465;48.802;9.224;2022-10-31T14:35:19;20.40;99.90
957;DHT22;465;48.802;9.224;2022-10-31T14:41:09;20.30;99.90
957;DHT22;465;48.802;9.224;2022-10-31T14:43:50;20.10;99.90
957;DHT22;465;48.802;9.224;2022-10-31T14:46:32;19.90;99.90
957;DHT22;465;48.802;9.224;2022-10-31T14:49:16;19.80;99.90
957;DHT22;465;48.802;9.224;2022-10-31T14:51:47;19.60;99.90
957;DHT22;465;48.802;9.224;2022-10-31T14:54:18;19.40;99.90
957;DHT22;465;48.802;9.224;2022-10-31T14:56:50;19.30;99.90
957;DHT22;465;48.802;9.224;2022-10-31T14:59:24;19.10;99.90
957;DHT22;465;48.802;9.224;2022-10-31T15:01:56;19.00;99.90
957;DHT22;465;48.802;9.224;2022-10-31T15:04:27;18.90;99.90
957;DHT22;465;48.802;9.224;2022-10-31T15:07:00;18.80;99.90
957;DHT22;465;48.802;9.224;2022-10-31T15:09:30;18.80;99.90
957;DHT22;465;48.802;9.224;2022-10-31T15:11:58;18.80;99.90
957;DHT22;465;48.802;9.224;2022-10-31T15:14:47;18.80;99.90
957;DHT22;465;48.802;9.224;2022-10-31T15:17:15;18.80;99.90
957;DHT22;465;48.802;9.224;2022-10-31T15:19:45;18.80;99.90
957;DHT22;465;48.802;9.224;2022-10-31T15:22:16;18.70;99.90
957;DHT22;465;48.802;9.224;2022-10-31T15:24:44;18.70;99.90
957;DHT22;465;48.802;9.224;2022-10-31T15:27:14;18.70;99.90
957;DHT22;465;48.802;9.224;2022-10-31T15:29:49;18.60;99.90
957;DHT22;465;48.802;9.224;2022-10-31T15:32:31;18.50;99.90
957;DHT22;465;48.802;9.224;2022-10-31T15:35:02;18.40;99.90
957;DHT22;465;48.802;9.224;2022-10-31T15:37:35;18.20;99.90
957;DHT22;465;48.802;9.224;2022-10-31T15:40:07;18.10;99.90
957;DHT22;465;48.802;9.224;2022-10-31T15:42:39;18.00;99.90
957;DHT22;465;48.802;9.224;2022-10-31T15:45:19;17.90;99.90
957;DHT22;465;48.802;9.224;2022-10-31T15:47:53;17.80;99.90
957;DHT22;465;48.802;9.224;2022-10-31T15:50:25;17.60;99.90
957;DHT22;465;48.802;9.224;2022-10-31T15:52:53;17.50;99.90
957;DHT22;465;48.802;9.224;2022-10-31T15:55:24;17.40;99.90
957;DHT22;465;48.802;9.224;2022-10-31T15:57:55;17.50;99.90
957;DHT22;465;48.802;9.224;2022-10-31T16:00:25;17.40;99.90
957;DHT22;465;48.802;9.224;2022-10-31T16:03:04;17.20;99.90
957;DHT22;465;48.802;9.224;2022-10-31T16:05:38;17.10;99.90
957;DHT22;465;48.802;9.224;2022-10-31T16:08:22;17.00;99.90
957;DHT22;465;48.802;9.224;2022-10-31T16:10:49;16.90;99.90
957;DHT22;465;48.802;9.224;2022-10-31T16:13:16;16.80;99.90
957;DHT22;465;48.802;9.224;2022-10-31T16:15:48;16.80;99.90
957;DHT22;465;48.802;9.224;2022-10-31T16:18:15;16.70;99.90
957;DHT22;465;48.802;9.224;2022-10-31T16:20:48;16.80;99.90
957;DHT22;465;48.802;9.224;2022-10-31T16:23:20;16.70;99.90
957;DHT22;465;48.802;9.224;2022-10-31T16:25:48;16.70;99.90
957;DHT22;465;48.802;9.224;2022-10-31T16:28:25;16.80;99.90
957;DHT22;465;48.802;9.224;2022-10-31T16:31:13;16.70;99.90
957;DHT22;465;48.802;9.224;2022-10-31T16:33:46;16.60;99.90
957;DHT22;465;48.802;9.224;2022-10-31T16:39:10;16.40;99.90
957;DHT22;465;48.802;9.224;2022-10-31T16:41:40;16.30;99.90
957;DHT22;465;48.802;9.224;2022-10-31T16:44:15;16.20;99.90
957;DHT22;465;48.802;9.224;2022-10-31T16:46:43;16.10;99.90
957;DHT22;465;48.802;9.224;2022-10-31T16:49:10;16.10;99.90
957;DHT22;465;48.802;9.224;2022-10-31T16:51:38;16.00;99.90
957;DHT22;465;48.802;9.224;2022-10-31T16:54:06;15.90;99.90
957;DHT22;465;48.802;9.224;2022-10-31T16:56:42;15.80;99.90
957;DHT22;465;48.802;9.224;2022-10-31T16:59:11;15.70;99.90
957;DHT22;465;48.802;9.224;2022-10-31T17:01:40;15.60;99.90
957;DHT22;465;48.802;9.224;2022-10-31T17:04:11;15.50;99.90
957;DHT22;465;48.802;9.224;2022-10-31T17:06:38;15.50;99.90
957;DHT22;465;48.802;9.224;2022-10-31T17:09:05;15.50;99.90
957;DHT22;465;48.802;9.224;2022-10-31T17:11:33;15.40;99.90
957;DHT22;465;48.802;9.224;2022-10-31T17:14:03;15.30;99.90
957;DHT22;465;48.802;9.224;2022-10-31T17:16:30;15.40;99.90
957;DHT22;465;48.802;9.224;2022-10-31T17:18:57;15.40;99.90
957;DHT22;465;48.802;9.224;2022-10-31T17:21:24;15.30;99.90
957;DHT22;465;48.802;9.224;2022-10-31T17:23:52;15.30;99.90
957;DHT22;465;48.802;9.224;2022-10-31T17:26:19;15.30;99.90
957;DHT22;465;48.802;9.224;2022-10-31T17:28:46;15.30;99.90
957;DHT22;465;48.802;9.224;2022-10-31T17:31:20;15.20;99.90
957;DHT22;465;48.802;9.224;2022-10-31T17:33:48;15.30;99.90
957;DHT22;465;48.802;9.224;2022-10-31T17:36:15;15.20;99.90
957;DHT22;465;48.802;9.224;2022-10-31T17:38:43;15.20;99.90
957;DHT22;465;48.802;9.224;2022-10-31T17:41:09;15.20;99.90
957;DHT22;465;48.802;9.224;2022-10-31T17:43:36;15.10;99.90
957;DHT22;465;48.802;9.224;2022-10-31T17:46:03;15.10;99.90
957;DHT22;465;48.802;9.224;2022-10-31T17:48:32;15.10;99.90
957;DHT22;465;48.802;9.224;2022-10-31T17:51:00;15.00;99.90
957;DHT22;465;48.802;9.224;2022-10-31T17:53:28;14.90;99.90
957;DHT22;465;48.802;9.224;2022-10-31T17:55:59;14.80;99.90